createdAt,value
2022-08-25T00:02:00.785Z,26.10
2022-08-25T00:04:29.954Z,23.50
2022-08-25T00:07:02.134Z,20.50
2022-08-25T00:09:31.529Z,19.80
2022-08-25T00:11:58.985Z,26.20
2022-08-25T00:14:33.536Z,17.92
2022-08-25T00:17:00.995Z,21.75
2022-08-25T00:19:32.134Z,18.08
2022-08-25T00:22:00.876Z,16.60
2022-08-25T00:24:28.509Z,17.50
2022-08-25T00:26:57.791Z,19.90
2022-08-25T00:29:26.344Z,20.85
2022-08-25T00:31:53.888Z,23.60
2022-08-25T00:34:24.385Z,28.50
2022-08-25T00:36:51.901Z,24.42
2022-08-25T00:39:21.370Z,19.13
2022-08-25T00:41:50.835Z,18.88
2022-08-25T00:44:18.846Z,22.08
2022-08-25T00:46:52.538Z,24.55
2022-08-25T00:49:33.804Z,25.38
2022-08-25T00:52:09.150Z,20.40
2022-08-25T00:54:41.002Z,20.27
2022-08-25T00:59:35.989Z,19.27
2022-08-25T01:02:04.436Z,24.13
2022-08-25T01:04:31.509Z,24.75
2022-08-25T01:07:00.629Z,19.85
2022-08-25T01:09:29.421Z,23.83
2022-08-25T01:11:56.677Z,31.77
2022-08-25T01:14:25.244Z,20.67
2022-08-25T01:16:53.867Z,18.60
2022-08-25T01:19:21.648Z,22.02
2022-08-25T01:21:50.682Z,20.55
2022-08-25T01:24:31.361Z,20.58
2022-08-25T01:26:58.204Z,20.95
2022-08-25T01:29:27.785Z,19.42
2022-08-25T01:32:01.364Z,17.42
2022-08-25T01:34:31.526Z,14.95
2022-08-25T01:36:59.185Z,17.08
2022-08-25T01:39:28.420Z,19.17
2022-08-25T01:42:09.720Z,21.90
2022-08-25T01:44:38.816Z,28.33
2022-08-25T01:47:07.167Z,20.88
2022-08-25T01:49:34.435Z,14.95
2022-08-25T01:52:07.305Z,24.13
2022-08-25T01:54:33.931Z,13.13
2022-08-25T01:57:00.492Z,18.15
2022-08-25T01:59:27.497Z,18.92
2022-08-25T02:01:59.763Z,24.63
2022-08-25T02:04:32.091Z,20.05
2022-08-25T02:07:01.454Z,22.75
2022-08-25T02:09:28.166Z,27.27
2022-08-25T02:11:54.988Z,18.52
2022-08-25T02:14:21.837Z,24.33
2022-08-25T02:16:51.674Z,22.23
2022-08-25T02:19:20.218Z,24.17
2022-08-25T02:21:47.200Z,14.63
2022-08-25T02:24:14.020Z,27.75
2022-08-25T02:26:41.296Z,24.73
2022-08-25T02:29:08.899Z,27.20
2022-08-25T02:31:35.782Z,18.63
2022-08-25T02:34:03.489Z,31.67
2022-08-25T02:36:32.101Z,16.63
2022-08-25T02:38:58.841Z,17.92
2022-08-25T02:41:31.019Z,20.73
2022-08-25T02:44:02.916Z,18.55
2022-08-25T02:46:30.985Z,26.23
2022-08-25T02:48:57.995Z,22.73
2022-08-25T02:51:26.107Z,23.90
2022-08-25T02:53:53.103Z,22.52
2022-08-25T02:56:20.720Z,18.30
2022-08-25T02:58:48.069Z,20.98
2022-08-25T03:01:16.130Z,19.58
2022-08-25T03:03:44.901Z,21.70
2022-08-25T03:06:18.180Z,15.82
2022-08-25T03:08:45.372Z,26.20
2022-08-25T03:11:12.759Z,20.02
2022-08-25T03:13:39.850Z,27.90
2022-08-25T03:16:11.057Z,21.27
2022-08-25T03:18:41.595Z,18.48
2022-08-25T03:21:11.364Z,27.67
2022-08-25T03:23:38.483Z,22.50
2022-08-25T03:26:24.001Z,26.58
2022-08-25T03:28:51.235Z,22.83
2022-08-25T03:31:18.435Z,18.38
2022-08-25T03:33:45.132Z,17.35
2022-08-25T03:36:12.354Z,17.83
2022-08-25T03:38:39.828Z,16.48
2022-08-25T03:41:29.225Z,20.10
2022-08-25T03:43:56.556Z,19.40
2022-08-25T03:46:30.312Z,17.77
2022-08-25T03:48:57.683Z,16.48
2022-08-25T03:51:28.829Z,16.17
2022-08-25T03:53:56.578Z,24.63
2022-08-25T03:56:23.187Z,19.38
2022-08-25T03:58:51.448Z,15.27
2022-08-25T04:01:18.316Z,18.70
2022-08-25T04:03:45.934Z,28.30
2022-08-25T04:06:13.807Z,28.63
2022-08-25T04:08:40.463Z,24.95
2022-08-25T04:11:13.919Z,18.70
2022-08-25T04:13:42.376Z,23.20
2022-08-25T04:16:14.546Z,29.73
2022-08-25T04:18:42.372Z,24.33
2022-08-25T04:21:09.804Z,20.55
2022-08-25T04:23:37.617Z,41.40
2022-08-25T04:26:16.618Z,25.58
2022-08-25T04:28:43.362Z,24.17
2022-08-25T04:31:11.762Z,33.40
2022-08-25T04:33:38.961Z,24.48
2022-08-25T04:36:11.442Z,24.92
2022-08-25T04:38:39.925Z,23.60
2022-08-25T04:41:08.315Z,24.50
2022-08-25T04:43:36.316Z,27.20
2022-08-25T04:46:08.705Z,25.52
2022-08-25T04:48:35.475Z,38.33
2022-08-25T04:51:06.853Z,27.58
2022-08-25T04:53:34.029Z,28.92
2022-08-25T04:56:03.660Z,33.40
2022-08-25T04:58:31.058Z,24.38
2022-08-25T05:01:05.395Z,32.70
2022-08-25T05:03:32.353Z,27.27
2022-08-25T05:06:02.319Z,32.85
2022-08-25T05:08:29.508Z,25.63
2022-08-25T05:10:56.745Z,23.35
2022-08-25T05:13:25.041Z,23.92
2022-08-25T05:15:57.596Z,26.17
2022-08-25T05:18:29.000Z,23.00
2022-08-25T05:20:57.189Z,27.17
2022-08-25T05:23:24.897Z,16.85
2022-08-25T05:25:52.990Z,17.15
2022-08-25T05:28:21.134Z,20.48
2022-08-25T05:30:51.359Z,19.77
2022-08-25T05:33:18.447Z,19.35
2022-08-25T05:35:45.099Z,17.77
2022-08-25T05:38:15.080Z,18.52
2022-08-25T05:40:42.039Z,20.38
2022-08-25T05:43:08.644Z,17.00
2022-08-25T05:45:36.061Z,27.45
2022-08-25T05:48:03.002Z,21.00
2022-08-25T05:50:29.655Z,21.42
2022-08-25T05:52:56.225Z,17.30
2022-08-25T05:55:22.886Z,18.15
2022-08-25T05:57:49.865Z,21.77
2022-08-25T06:00:17.487Z,24.08
2022-08-25T06:02:46.232Z,21.48
2022-08-25T06:05:23.041Z,19.67
2022-08-25T06:07:52.111Z,23.25
2022-08-25T06:10:20.186Z,19.27
2022-08-25T06:12:47.460Z,23.50
2022-08-25T06:15:16.935Z,19.08
2022-08-25T06:17:44.014Z,23.42
2022-08-25T06:20:13.996Z,20.05
2022-08-25T06:22:41.966Z,20.43
2022-08-25T06:25:10.684Z,15.38
2022-08-25T06:27:37.748Z,27.95
2022-08-25T06:30:08.002Z,22.10
2022-08-25T06:32:36.694Z,18.35
2022-08-25T06:35:05.944Z,18.38
2022-08-25T06:37:32.859Z,28.70
2022-08-25T06:39:59.421Z,31.23
2022-08-25T06:42:26.323Z,32.00
2022-08-25T06:44:52.896Z,42.53
2022-08-25T06:47:20.154Z,30.30
2022-08-25T06:49:47.416Z,25.55
2022-08-25T06:52:15.281Z,33.53
2022-08-25T06:54:42.208Z,37.83
2022-08-25T06:57:09.176Z,29.70
2022-08-25T06:59:36.264Z,31.98
2022-08-25T07:02:04.238Z,35.10
2022-08-25T07:04:31.887Z,30.80
2022-08-25T07:06:59.393Z,31.88
2022-08-25T07:09:25.915Z,25.02
2022-08-25T07:11:52.585Z,34.33
2022-08-25T07:14:20.077Z,30.35
2022-08-25T07:16:49.632Z,31.63
2022-08-25T07:19:20.831Z,30.63
2022-08-25T07:21:51.328Z,31.92
2022-08-25T07:24:18.422Z,28.17
2022-08-25T07:26:46.732Z,34.17
2022-08-25T07:29:18.659Z,38.95
2022-08-25T07:31:47.402Z,25.40
2022-08-25T07:34:32.879Z,40.03
2022-08-25T07:37:04.423Z,40.38
2022-08-25T07:39:33.797Z,33.53
2022-08-25T07:42:00.792Z,33.40
2022-08-25T07:44:28.720Z,29.58
2022-08-25T07:46:55.677Z,31.23
2022-08-25T07:49:24.023Z,37.10
2022-08-25T07:52:04.599Z,32.03
2022-08-25T07:54:34.465Z,35.75
2022-08-25T07:57:03.576Z,32.90
2022-08-25T07:59:30.913Z,37.13
2022-08-25T08:02:05.630Z,34.28
2022-08-25T08:04:32.158Z,29.83
2022-08-25T08:06:58.735Z,39.28
2022-08-25T08:09:25.369Z,38.53
2022-08-25T08:11:54.343Z,30.98
2022-08-25T08:14:21.112Z,41.22
2022-08-25T08:16:47.804Z,36.38
2022-08-25T08:19:14.563Z,37.55
2022-08-25T08:21:41.848Z,35.60
2022-08-25T08:24:24.913Z,36.40
2022-08-25T08:26:58.987Z,36.88
2022-08-25T08:29:26.343Z,32.08
2022-08-25T08:31:53.359Z,38.78
2022-08-25T08:34:20.112Z,40.38
2022-08-25T08:36:52.493Z,35.55
2022-08-25T08:39:19.079Z,44.08
2022-08-25T08:42:22.417Z,38.80
2022-08-25T08:44:59.199Z,41.72
2022-08-25T08:47:56.004Z,39.15
2022-08-25T08:50:33.380Z,39.33
2022-08-25T08:53:11.040Z,49.17
2022-08-25T08:55:48.312Z,36.40
2022-08-25T08:58:42.168Z,44.42
2022-08-25T09:01:15.717Z,41.22
2022-08-25T09:03:58.884Z,33.97
2022-08-25T09:06:37.709Z,29.45
2022-08-25T09:09:06.876Z,42.95
2022-08-25T09:11:42.411Z,48.00
2022-08-25T09:14:54.031Z,37.08
2022-08-25T09:17:39.459Z,33.38
2022-08-25T09:20:18.662Z,30.60
2022-08-25T09:23:02.198Z,44.67
2022-08-25T09:25:54.003Z,43.70
2022-08-25T09:28:32.258Z,41.30
2022-08-25T09:31:16.296Z,58.58
2022-08-25T09:33:43.083Z,50.88
2022-08-25T09:36:09.897Z,38.20
2022-08-25T09:38:37.074Z,38.88
2022-08-25T09:41:05.623Z,30.90
2022-08-25T09:43:36.740Z,41.20
2022-08-25T09:46:03.608Z,46.63
2022-08-25T09:48:56.977Z,27.05
2022-08-25T09:51:42.186Z,42.63
2022-08-25T09:54:15.671Z,44.03
2022-08-25T09:56:57.346Z,36.47
2022-08-25T10:02:05.482Z,33.88
2022-08-25T10:04:36.924Z,34.67
2022-08-25T10:09:41.799Z,32.78
2022-08-25T10:12:24.900Z,41.92
2022-08-25T10:14:54.608Z,33.50
2022-08-25T10:17:30.164Z,43.08
2022-08-25T10:20:11.926Z,36.38
2022-08-25T10:22:41.628Z,36.88
2022-08-25T10:25:11.841Z,33.17
2022-08-25T10:27:53.525Z,29.83
2022-08-25T10:30:28.224Z,29.60
2022-08-25T10:33:10.204Z,42.03
2022-08-25T10:36:50.735Z,27.13
2022-08-25T10:39:40.496Z,38.75
2022-08-25T10:42:19.780Z,34.05
2022-08-25T10:45:21.903Z,39.03
2022-08-25T10:47:57.591Z,36.90
2022-08-25T10:50:38.672Z,38.03
2022-08-25T10:53:12.672Z,33.15
2022-08-25T10:55:43.994Z,42.28
2022-08-25T10:58:44.236Z,33.00
2022-08-25T11:01:45.040Z,34.13
2022-08-25T11:04:53.198Z,28.83
2022-08-25T11:07:31.220Z,42.65
2022-08-25T11:10:03.280Z,28.33
2022-08-25T11:12:32.848Z,32.17
2022-08-25T11:15:07.000Z,30.83
2022-08-25T11:17:42.849Z,34.33
2022-08-25T11:20:26.507Z,31.38
2022-08-25T11:23:16.817Z,27.88
2022-08-25T11:25:47.455Z,35.67
2022-08-25T11:28:23.172Z,35.00
2022-08-25T11:30:53.036Z,28.90
2022-08-25T11:33:20.520Z,40.30
2022-08-25T11:35:55.376Z,32.85
2022-08-25T11:38:45.375Z,41.42
2022-08-25T11:41:17.787Z,35.97
2022-08-25T11:44:02.516Z,40.65
2022-08-25T11:46:42.044Z,38.72
2022-08-25T11:49:43.074Z,35.17
2022-08-25T11:52:32.574Z,36.13
2022-08-25T11:55:22.966Z,39.10
2022-08-25T11:57:53.644Z,37.30
2022-08-25T12:00:42.608Z,39.77
2022-08-25T12:03:37.148Z,28.52
2022-08-25T12:06:59.211Z,35.58
2022-08-25T12:09:25.814Z,36.00
2022-08-25T12:11:58.241Z,29.60
2022-08-25T12:14:24.809Z,35.85
2022-08-25T12:16:54.906Z,37.40
2022-08-25T12:19:26.404Z,34.83
2022-08-25T12:21:59.017Z,36.53
2022-08-25T12:24:48.855Z,37.90
2022-08-25T12:27:53.297Z,37.05
2022-08-25T12:30:22.432Z,35.55
2022-08-25T12:33:07.564Z,35.47
2022-08-25T12:35:57.849Z,37.92
2022-08-25T12:41:24.366Z,41.05
2022-08-25T12:43:54.328Z,37.15
2022-08-25T12:46:25.783Z,27.92
2022-08-25T12:49:32.217Z,34.88
2022-08-25T12:52:05.948Z,41.55
2022-08-25T12:54:38.434Z,29.35
2022-08-25T12:57:17.967Z,39.95
2022-08-25T12:59:56.236Z,38.10
2022-08-25T13:03:09.147Z,36.15
2022-08-25T13:06:04.483Z,37.47
2022-08-25T13:08:54.219Z,47.58
2022-08-25T13:11:49.581Z,41.72
2022-08-25T13:14:26.894Z,38.35
2022-08-25T13:16:57.464Z,26.58
2022-08-25T13:19:26.231Z,46.17
2022-08-25T13:21:54.795Z,32.80
2022-08-25T13:24:26.531Z,31.00
2022-08-25T13:26:57.677Z,28.13
2022-08-25T13:29:26.567Z,34.38
2022-08-25T13:32:14.792Z,31.33
2022-08-25T13:34:43.171Z,31.25
2022-08-25T13:37:32.382Z,40.92
2022-08-25T13:40:25.887Z,42.05
2022-08-25T13:42:57.546Z,32.05
2022-08-25T13:45:28.402Z,36.65
2022-08-25T13:47:56.851Z,40.88
2022-08-25T13:50:27.028Z,34.30
2022-08-25T13:53:01.835Z,35.90
2022-08-25T13:55:53.672Z,34.45
2022-08-25T13:58:38.509Z,50.83
2022-08-25T14:01:47.483Z,33.40
2022-08-25T14:04:39.783Z,38.58
2022-08-25T14:07:20.851Z,43.83
2022-08-25T14:09:49.333Z,23.75
2022-08-25T14:12:38.152Z,30.05
2022-08-25T14:15:16.789Z,33.72
2022-08-25T14:17:59.818Z,41.17
2022-08-25T14:20:29.706Z,32.67
2022-08-25T14:23:10.249Z,41.30
2022-08-25T14:25:37.336Z,33.60
2022-08-25T14:28:13.457Z,36.00
2022-08-25T14:30:45.971Z,42.70
2022-08-25T14:33:14.707Z,45.00
2022-08-25T14:35:45.478Z,39.92
2022-08-25T14:38:14.869Z,38.42
2022-08-25T14:40:41.608Z,27.25
2022-08-25T14:43:09.548Z,36.13
2022-08-25T14:45:39.927Z,32.83
2022-08-25T14:48:17.967Z,40.15
2022-08-25T14:50:45.260Z,32.58
2022-08-25T14:53:12.180Z,46.13
2022-08-25T14:55:41.240Z,34.85
2022-08-25T14:58:08.828Z,39.53
2022-08-25T15:00:44.593Z,34.55
2022-08-25T15:03:17.923Z,32.70
2022-08-25T15:05:44.921Z,34.83
2022-08-25T15:08:33.202Z,31.15
2022-08-25T15:11:00.291Z,38.20
2022-08-25T15:13:27.474Z,36.47
2022-08-25T15:15:55.215Z,31.77
2022-08-25T15:18:25.851Z,35.33
2022-08-25T15:20:52.470Z,48.33
2022-08-25T15:23:20.128Z,32.67
2022-08-25T15:25:48.991Z,45.88
2022-08-25T15:28:22.678Z,34.47
2022-08-25T15:30:50.156Z,57.42
2022-08-25T15:33:17.527Z,35.22
2022-08-25T15:35:45.089Z,35.67
2022-08-25T15:38:12.730Z,30.67
2022-08-25T15:40:39.716Z,37.45
2022-08-25T15:43:07.068Z,32.80
2022-08-25T15:45:36.130Z,37.38
2022-08-25T15:48:04.336Z,33.83
2022-08-25T15:50:33.564Z,32.70
2022-08-25T15:53:00.511Z,40.88
2022-08-25T15:55:27.405Z,40.08
2022-08-25T15:57:54.032Z,39.90
2022-08-25T16:00:21.603Z,40.70
2022-08-25T16:02:48.283Z,37.17
2022-08-25T16:05:16.363Z,29.27
2022-08-25T16:07:45.884Z,34.60
2022-08-25T16:10:13.573Z,37.78
2022-08-25T16:12:42.768Z,27.50
2022-08-25T16:15:10.161Z,37.00
2022-08-25T16:17:40.718Z,40.90
2022-08-25T16:20:13.646Z,33.92
2022-08-25T16:22:40.992Z,36.10
2022-08-25T16:25:08.099Z,36.75
2022-08-25T16:27:38.859Z,30.02
2022-08-25T16:30:17.623Z,40.75
2022-08-25T16:32:45.268Z,32.97
2022-08-25T16:35:13.056Z,38.22
2022-08-25T16:37:40.492Z,38.20
2022-08-25T16:40:13.322Z,25.38
2022-08-25T16:42:41.584Z,34.13
2022-08-25T16:45:09.017Z,42.78
2022-08-25T16:47:38.121Z,36.42
2022-08-25T16:50:08.944Z,31.30
2022-08-25T16:52:58.315Z,29.13
2022-08-25T16:55:27.246Z,29.42
2022-08-25T16:57:54.295Z,28.23
2022-08-25T17:00:24.973Z,34.75
2022-08-25T17:02:59.098Z,31.35
2022-08-25T17:05:27.607Z,39.00
2022-08-25T17:08:12.653Z,32.63
2022-08-25T17:10:41.603Z,24.05
2022-08-25T17:13:09.641Z,31.80
2022-08-25T17:15:41.183Z,26.00
2022-08-25T17:18:08.531Z,30.33
2022-08-25T17:20:38.277Z,37.38
2022-08-25T17:23:11.968Z,24.90
2022-08-25T17:25:42.910Z,26.58
2022-08-25T17:28:12.270Z,30.38
2022-08-25T17:30:41.841Z,32.10
2022-08-25T17:33:08.415Z,36.75
2022-08-25T17:35:43.020Z,29.95
2022-08-25T17:38:10.956Z,30.90
2022-08-25T17:40:38.472Z,28.00
2022-08-25T17:43:06.020Z,30.45
2022-08-25T17:45:35.996Z,27.23
2022-08-25T17:48:02.939Z,27.85
2022-08-25T17:50:29.997Z,33.63
2022-08-25T17:52:56.516Z,27.00
2022-08-25T17:55:24.260Z,22.05
2022-08-25T17:57:51.360Z,29.30
2022-08-25T18:00:20.713Z,22.80
2022-08-25T18:02:48.362Z,39.47
2022-08-25T18:05:16.769Z,30.25
2022-08-25T18:07:44.078Z,26.48
2022-08-25T18:10:11.773Z,30.85
2022-08-25T18:12:39.149Z,23.38
2022-08-25T18:15:07.125Z,29.05
2022-08-25T18:17:35.752Z,24.45
2022-08-25T18:20:06.194Z,29.63
2022-08-25T18:22:33.104Z,33.63
2022-08-25T18:25:02.905Z,30.63
2022-08-25T18:27:29.835Z,26.75
2022-08-25T18:29:57.151Z,29.00
2022-08-25T18:32:25.974Z,24.20
2022-08-25T18:34:53.521Z,32.13
2022-08-25T18:37:39.161Z,33.15
2022-08-25T18:40:27.482Z,28.48
2022-08-25T18:43:01.873Z,34.90
2022-08-25T18:45:33.203Z,28.95
2022-08-25T18:48:00.979Z,27.92
2022-08-25T18:50:32.161Z,29.58
2022-08-25T18:53:00.340Z,25.52
2022-08-25T18:55:27.068Z,22.60
2022-08-25T18:57:55.337Z,30.23
2022-08-25T19:00:24.921Z,21.65
2022-08-25T19:02:54.002Z,26.58
2022-08-25T19:05:24.365Z,18.98
2022-08-25T19:07:52.069Z,28.05
2022-08-25T19:10:20.929Z,22.95
2022-08-25T19:12:50.827Z,26.27
2022-08-25T19:15:18.207Z,26.65
2022-08-25T19:17:53.116Z,28.10
2022-08-25T19:20:20.947Z,25.15
2022-08-25T19:22:47.803Z,27.48
2022-08-25T19:25:15.799Z,27.85
2022-08-25T19:27:43.443Z,25.55
2022-08-25T19:30:11.692Z,28.25
2022-08-25T19:32:40.790Z,24.85
2022-08-25T19:35:12.976Z,30.45
2022-08-25T19:37:39.905Z,21.00
2022-08-25T19:40:09.333Z,23.27
2022-08-25T19:42:38.540Z,22.52
2022-08-25T19:45:08.029Z,18.55
2022-08-25T19:47:35.212Z,28.90
2022-08-25T19:50:01.826Z,25.52
2022-08-25T19:52:28.736Z,21.60
2022-08-25T19:54:55.609Z,22.38
2022-08-25T19:57:27.876Z,26.02
2022-08-25T20:00:20.091Z,23.08
2022-08-25T20:02:47.447Z,25.73
2022-08-25T20:05:16.851Z,23.17
2022-08-25T20:07:52.924Z,24.35
2022-08-25T20:10:20.508Z,19.88
2022-08-25T20:12:47.197Z,23.13
2022-08-25T20:15:16.521Z,24.88
2022-08-25T20:17:44.048Z,27.50
2022-08-25T20:20:15.076Z,22.25
2022-08-25T20:22:41.983Z,24.02
2022-08-25T20:25:13.992Z,21.75
2022-08-25T20:27:45.013Z,33.22
2022-08-25T20:30:19.184Z,25.87
2022-08-25T20:32:46.296Z,27.77
2022-08-25T20:35:14.379Z,29.58
2022-08-25T20:37:43.818Z,21.48
2022-08-25T20:40:13.376Z,28.00
2022-08-25T20:42:40.642Z,23.80
2022-08-25T20:45:10.465Z,19.55
2022-08-25T20:47:37.146Z,20.52
2022-08-25T20:50:06.875Z,19.75
2022-08-25T20:52:34.586Z,24.20
2022-08-25T20:55:01.710Z,26.67
2022-08-25T20:57:28.664Z,17.67
2022-08-25T20:59:56.847Z,19.27
2022-08-25T21:02:24.996Z,24.60
2022-08-25T21:04:52.835Z,21.25
2022-08-25T21:07:21.475Z,34.10
2022-08-25T21:09:51.439Z,22.98
2022-08-25T21:12:18.261Z,19.92
2022-08-25T21:14:44.931Z,18.02
2022-08-25T21:17:12.968Z,22.55
2022-08-25T21:19:40.300Z,17.13
2022-08-25T21:22:08.898Z,21.80
2022-08-25T21:24:37.781Z,24.02
2022-08-25T21:27:04.623Z,24.58
2022-08-25T21:29:32.759Z,30.85
2022-08-25T21:31:59.779Z,25.05
2022-08-25T21:34:28.815Z,22.50
2022-08-25T21:36:57.725Z,20.95
2022-08-25T21:39:31.995Z,26.65
2022-08-25T21:42:00.484Z,14.63
2022-08-25T21:44:28.646Z,24.10
2022-08-25T21:46:56.409Z,17.63
2022-08-25T21:49:25.527Z,20.98
2022-08-25T21:52:00.278Z,24.00
2022-08-25T21:54:28.806Z,23.50
2022-08-25T21:56:59.755Z,22.13
2022-08-25T21:59:35.495Z,17.67
2022-08-25T22:02:10.355Z,19.42
2022-08-25T22:04:39.343Z,18.15
2022-08-25T22:07:08.120Z,21.95
2022-08-25T22:09:35.621Z,19.83
2022-08-25T22:12:02.880Z,24.83
2022-08-25T22:14:29.596Z,17.88
2022-08-25T22:16:56.358Z,30.95
2022-08-25T22:19:24.647Z,24.73
2022-08-25T22:21:52.821Z,23.90
2022-08-25T22:24:20.649Z,24.02
2022-08-25T22:26:48.594Z,22.75
2022-08-25T22:29:24.936Z,17.58
2022-08-25T22:31:53.894Z,23.70
2022-08-25T22:34:31.609Z,14.35
2022-08-25T22:37:00.066Z,18.63
2022-08-25T22:39:27.606Z,17.88
2022-08-25T22:41:54.243Z,17.70
2022-08-25T22:44:22.188Z,21.63
2022-08-25T22:46:48.791Z,27.05
2022-08-25T22:49:15.312Z,15.57
2022-08-25T22:51:42.249Z,18.63
2022-08-25T22:54:09.540Z,17.65
2022-08-25T22:56:38.840Z,30.15
2022-08-25T22:59:08.433Z,22.27
2022-08-25T23:01:36.269Z,22.98
2022-08-25T23:04:04.942Z,23.90
2022-08-25T23:06:34.318Z,19.83
2022-08-25T23:09:02.028Z,24.30
2022-08-25T23:11:29.041Z,32.13
2022-08-25T23:13:57.585Z,26.83
2022-08-25T23:16:25.203Z,24.25
2022-08-25T23:18:52.784Z,19.60
2022-08-25T23:21:41.362Z,26.52
2022-08-25T23:24:13.503Z,16.25
2022-08-25T23:26:42.667Z,18.97
2022-08-25T23:29:18.121Z,32.08
2022-08-25T23:31:47.050Z,17.33
2022-08-25T23:34:15.351Z,22.55
2022-08-25T23:36:43.080Z,14.52
2022-08-25T23:39:11.310Z,22.90
2022-08-25T23:41:38.300Z,28.08
2022-08-25T23:44:11.436Z,20.65
2022-08-25T23:46:38.792Z,18.85
2022-08-25T23:49:08.423Z,20.98
2022-08-25T23:51:38.023Z,18.35
2022-08-25T23:54:09.197Z,28.38
2022-08-25T23:56:44.710Z,19.65
2022-08-25T23:59:18.796Z,19.50
